Stoddard, Wisconsin
Current Conditions -  °F | °C
As of 1:53 AM on Thursday 18 Dec 2014 (Local Time) from KLSE Reporting Station
Overcast Overcast  
Wind Chill: 20°   Ceiling: 2100
Heat Index: 20°   Visibility: 10mi
Dew Point: 14°   Wind: 3mph
Humidity: 78%   Direction: 330°NNW
Pressure: 30.32"   Gusts: NA
Location:  43.66°N, 91.22°W
Report Text: KLSE 180753Z AUTO 33003KT 10SM OVC021 M07/M10 A3032 RMK AO2 SLP283 T10671100
Loading
Personal Weather Stations






























Interactive Weather Map New forecast layout! Learn more

10-Day Weather Forecast

Advertisements
Track Severe Weather on mobile